createdAt,value
2019-04-27T00:03:01.856Z,9.93
2019-04-27T00:05:53.568Z,9.90
2019-04-27T00:08:50.039Z,9.90
2019-04-27T00:12:01.078Z,9.70
2019-04-27T00:14:54.387Z,9.90
2019-04-27T00:18:03.568Z,10.47
2019-04-27T00:21:00.767Z,10.00
2019-04-27T00:23:53.206Z,9.93
2019-04-27T00:26:45.641Z,9.60
2019-04-27T00:29:36.300Z,9.93
2019-04-27T00:32:27.142Z,9.90
2019-04-27T00:35:24.377Z,10.47
2019-04-27T00:38:26.745Z,10.40
2019-04-27T00:41:19.266Z,9.90
2019-04-27T00:44:11.283Z,10.20
2019-04-27T00:47:04.305Z,10.30
2019-04-27T00:49:55.984Z,10.07
2019-04-27T00:52:46.701Z,10.17
2019-04-27T00:55:43.870Z,10.40
2019-04-27T00:58:45.477Z,9.90
2019-04-27T01:01:43.580Z,9.87
2019-04-27T01:04:35.174Z,10.80
2019-04-27T01:07:26.556Z,10.47
2019-04-27T01:10:17.746Z,10.30
2019-04-27T01:13:09.274Z,10.07
2019-04-27T01:15:59.852Z,10.50
2019-04-27T01:18:51.148Z,10.27
2019-04-27T01:21:41.951Z,10.33
2019-04-27T01:24:33.717Z,10.83
2019-04-27T01:27:32.244Z,10.50
2019-04-27T01:30:30.367Z,9.70
2019-04-27T01:33:21.989Z,10.43
2019-04-27T01:36:12.565Z,10.90
2019-04-27T01:39:04.248Z,10.37
2019-04-27T01:41:56.967Z,10.03
2019-04-27T01:44:47.392Z,10.53
2019-04-27T01:47:39.177Z,9.80
2019-04-27T01:50:30.461Z,10.23
2019-04-27T01:53:20.800Z,10.00
2019-04-27T01:56:11.364Z,9.90
2019-04-27T01:59:02.596Z,10.13
2019-04-27T02:02:15.741Z,10.00
2019-04-27T02:05:41.082Z,10.07
2019-04-27T02:08:32.966Z,9.50
2019-04-27T02:11:23.835Z,10.33
2019-04-27T02:14:15.165Z,10.07
2019-04-27T02:17:05.609Z,9.80
2019-04-27T02:19:55.748Z,10.60
2019-04-27T02:22:46.315Z,10.40
2019-04-27T02:25:36.602Z,10.10
2019-04-27T02:28:51.935Z,10.40
2019-04-27T02:32:02.741Z,10.53
2019-04-27T02:34:57.456Z,10.60
2019-04-27T02:37:50.220Z,10.10
2019-04-27T02:40:56.387Z,10.20
2019-04-27T02:44:01.953Z,10.90
2019-04-27T02:46:52.436Z,11.37
2019-04-27T02:49:44.116Z,10.53
2019-04-27T02:52:40.651Z,10.30
2019-04-27T02:55:31.896Z,10.60
2019-04-27T02:58:22.103Z,10.40
2019-04-27T03:01:13.536Z,11.07
2019-04-27T03:04:04.083Z,10.60
2019-04-27T03:06:55.562Z,11.00
2019-04-27T03:09:46.990Z,10.80
2019-04-27T03:12:43.409Z,10.60
2019-04-27T03:15:52.597Z,10.50
2019-04-27T03:18:50.775Z,10.73
2019-04-27T03:21:59.313Z,10.70
2019-04-27T03:25:10.196Z,10.83
2019-04-27T03:28:05.561Z,10.97
2019-04-27T03:30:57.108Z,11.50
2019-04-27T03:33:54.816Z,11.70
2019-04-27T03:36:39.872Z,10.90
2019-04-27T03:39:32.806Z,11.60
2019-04-27T03:42:23.964Z,11.20
2019-04-27T03:45:15.325Z,11.77
2019-04-27T03:48:05.534Z,11.13
2019-04-27T03:51:14.961Z,12.30
2019-04-27T03:54:29.521Z,10.80
2019-04-27T03:57:40.970Z,11.10
2019-04-27T04:00:31.633Z,11.13
2019-04-27T04:03:22.269Z,11.70
2019-04-27T04:06:12.870Z,11.07
2019-04-27T04:09:03.857Z,10.87
2019-04-27T04:12:03.854Z,10.70
2019-04-27T04:14:54.311Z,11.17
2019-04-27T04:17:44.718Z,10.50
2019-04-27T04:20:37.129Z,10.73
2019-04-27T04:23:29.728Z,11.17
2019-04-27T04:26:20.603Z,10.83
2019-04-27T04:29:11.267Z,11.10
2019-04-27T04:32:02.909Z,11.97
2019-04-27T04:34:53.331Z,11.30
2019-04-27T04:37:44.548Z,11.20
2019-04-27T04:40:40.743Z,11.20
2019-04-27T04:43:40.116Z,11.00
2019-04-27T04:46:43.962Z,10.80
2019-04-27T04:49:35.354Z,11.00
2019-04-27T04:52:25.707Z,10.27
2019-04-27T04:55:16.807Z,10.97
2019-04-27T04:58:09.439Z,11.03
2019-04-27T05:01:01.824Z,11.00
2019-04-27T05:03:54.568Z,10.77
2019-04-27T05:06:45.922Z,11.03
2019-04-27T05:09:37.307Z,11.60
2019-04-27T05:12:28.790Z,12.10
2019-04-27T05:15:21.509Z,11.37
2019-04-27T05:18:12.665Z,11.40
2019-04-27T05:21:13.769Z,11.10
2019-04-27T05:24:05.650Z,11.10
2019-04-27T05:26:58.882Z,12.23
2019-04-27T05:29:50.576Z,11.33
2019-04-27T05:32:41.123Z,11.13
2019-04-27T05:35:32.726Z,11.30
2019-04-27T05:38:23.045Z,11.10
2019-04-27T05:41:14.078Z,11.20
2019-04-27T05:44:23.159Z,11.47
2019-04-27T05:47:22.812Z,11.60
2019-04-27T05:50:18.348Z,10.63
2019-04-27T05:53:08.680Z,11.93
2019-04-27T05:56:00.029Z,11.40
2019-04-27T05:58:51.231Z,11.20
2019-04-27T06:01:42.496Z,11.50
2019-04-27T06:04:33.500Z,11.40
2019-04-27T06:07:24.016Z,12.10
2019-04-27T06:10:14.407Z,10.93
2019-04-27T06:13:05.765Z,11.53
2019-04-27T06:15:56.243Z,11.90
2019-04-27T06:18:46.716Z,11.20
2019-04-27T06:21:37.356Z,12.00
2019-04-27T06:24:27.508Z,12.90
2019-04-27T06:27:18.676Z,12.27
2019-04-27T06:30:10.668Z,11.57
2019-04-27T06:33:02.062Z,12.10
2019-04-27T06:35:53.277Z,12.53
2019-04-27T06:38:43.767Z,12.37
2019-04-27T06:41:33.904Z,12.13
2019-04-27T06:44:24.904Z,12.27
2019-04-27T06:47:15.105Z,12.27
2019-04-27T06:50:06.144Z,12.23
2019-04-27T06:52:56.476Z,12.10
2019-04-27T06:55:49.641Z,12.30
2019-04-27T06:58:40.811Z,12.30
2019-04-27T07:01:32.341Z,12.03
2019-04-27T07:04:23.737Z,11.80
2019-04-27T07:07:14.871Z,12.70
2019-04-27T07:10:08.602Z,12.10
2019-04-27T07:13:00.092Z,12.80
2019-04-27T07:15:50.573Z,11.97
2019-04-27T07:18:41.058Z,12.07
2019-04-27T07:21:34.782Z,12.27
2019-04-27T07:24:26.494Z,12.30
2019-04-27T07:27:21.315Z,12.60
2019-04-27T07:30:12.088Z,13.10
2019-04-27T07:33:03.312Z,13.03
2019-04-27T07:35:54.448Z,11.90
2019-04-27T07:38:46.035Z,13.00
2019-04-27T07:41:38.786Z,13.33
2019-04-27T07:44:49.812Z,13.00
2019-04-27T07:47:43.274Z,13.20
2019-04-27T07:50:35.894Z,13.10
2019-04-27T07:53:26.851Z,13.07
2019-04-27T07:56:19.112Z,13.10
2019-04-27T07:59:10.345Z,13.13
2019-04-27T08:02:01.268Z,13.30
2019-04-27T08:04:52.275Z,13.20
2019-04-27T08:07:43.369Z,13.27
2019-04-27T08:10:33.490Z,14.67
2019-04-27T08:13:23.937Z,14.17
2019-04-27T08:16:15.309Z,13.90
2019-04-27T08:19:06.785Z,13.50
2019-04-27T08:21:59.624Z,13.70
2019-04-27T08:24:50.203Z,13.60
2019-04-27T08:27:49.318Z,13.90
2019-04-27T08:30:46.818Z,14.20
2019-04-27T08:33:38.898Z,12.70
2019-04-27T08:36:29.231Z,12.87
2019-04-27T08:39:19.281Z,13.30
2019-04-27T08:42:09.726Z,13.73
2019-04-27T08:45:00.021Z,13.27
2019-04-27T08:47:50.480Z,13.30
2019-04-27T08:50:42.238Z,14.03
2019-04-27T08:53:33.366Z,14.17
2019-04-27T08:56:24.726Z,14.00
2019-04-27T08:59:16.191Z,13.30
2019-04-27T09:02:06.480Z,13.50
2019-04-27T09:04:56.708Z,12.50
2019-04-27T09:07:59.508Z,13.47
2019-04-27T09:11:11.927Z,13.43
2019-04-27T09:14:09.179Z,13.23
2019-04-27T09:17:26.046Z,13.57
2019-04-27T09:20:29.805Z,14.50
2019-04-27T09:23:20.253Z,12.97
2019-04-27T09:26:11.377Z,13.70
2019-04-27T09:29:03.469Z,12.70
2019-04-27T09:31:54.768Z,12.50
2019-04-27T09:34:46.705Z,12.00
2019-04-27T09:37:39.170Z,12.20
2019-04-27T09:40:30.618Z,11.37
2019-04-27T09:43:22.049Z,12.60
2019-04-27T09:46:15.720Z,12.77
2019-04-27T09:49:07.480Z,12.50
2019-04-27T09:51:58.781Z,12.50
2019-04-27T09:54:49.481Z,12.57
2019-04-27T09:57:40.160Z,12.43
2019-04-27T10:00:30.720Z,12.60
2019-04-27T10:03:21.802Z,13.50
2019-04-27T10:06:12.091Z,13.10
2019-04-27T10:09:02.875Z,12.57
2019-04-27T10:11:54.747Z,12.03
2019-04-27T10:14:45.426Z,12.27
2019-04-27T10:17:38.274Z,12.17
2019-04-27T10:20:29.948Z,12.37
2019-04-27T10:23:20.671Z,12.90
2019-04-27T10:26:11.242Z,12.60
2019-04-27T10:29:02.821Z,12.40
2019-04-27T10:31:53.417Z,12.13
2019-04-27T10:34:43.580Z,12.70
2019-04-27T10:37:33.936Z,13.00
2019-04-27T10:40:26.363Z,12.03
2019-04-27T10:43:17.745Z,12.00
2019-04-27T10:46:08.232Z,12.07
2019-04-27T10:48:58.615Z,11.77
2019-04-27T10:51:49.993Z,11.00
2019-04-27T10:54:41.166Z,11.80
2019-04-27T10:57:31.519Z,11.30
2019-04-27T11:00:28.508Z,11.23
2019-04-27T11:03:22.855Z,11.47
2019-04-27T11:06:32.813Z,11.00
2019-04-27T11:09:25.711Z,9.87
2019-04-27T11:12:17.320Z,10.43
2019-04-27T11:15:09.553Z,10.00
2019-04-27T11:18:01.277Z,9.70
2019-04-27T11:20:52.599Z,9.70
2019-04-27T11:23:43.433Z,10.67
2019-04-27T11:26:36.365Z,9.50
2019-04-27T11:29:27.740Z,10.07
2019-04-27T11:32:19.284Z,9.90
2019-04-27T11:35:36.458Z,10.10
2019-04-27T11:38:27.361Z,9.47
2019-04-27T11:41:18.833Z,9.37
2019-04-27T11:44:10.091Z,10.50
2019-04-27T11:47:01.373Z,10.17
2019-04-27T11:49:52.479Z,10.20
2019-04-27T11:52:42.889Z,10.07
2019-04-27T11:55:34.443Z,9.60
2019-04-27T11:58:26.424Z,9.53
2019-04-27T12:01:17.230Z,10.10
2019-04-27T12:04:07.758Z,10.00
2019-04-27T12:06:58.285Z,10.20
2019-04-27T12:09:48.619Z,9.57
2019-04-27T12:12:39.214Z,9.90
2019-04-27T12:15:30.609Z,9.73
2019-04-27T12:18:21.207Z,9.70
2019-04-27T12:21:12.579Z,9.23
2019-04-27T12:24:03.271Z,9.80
2019-04-27T12:27:01.055Z,9.90
2019-04-27T12:30:17.589Z,9.80
2019-04-27T12:33:08.407Z,10.23
2019-04-27T12:35:58.846Z,10.27
2019-04-27T12:38:49.933Z,10.37
2019-04-27T12:41:40.558Z,10.20
2019-04-27T12:44:31.018Z,10.03
2019-04-27T12:47:22.429Z,10.30
2019-04-27T12:50:14.863Z,10.20
2019-04-27T12:53:08.204Z,9.37
2019-04-27T12:56:10.860Z,9.90
2019-04-27T12:59:16.752Z,10.17
2019-04-27T13:02:07.520Z,10.60
2019-04-27T13:04:58.614Z,10.87
2019-04-27T13:07:49.792Z,10.43
2019-04-27T13:10:41.038Z,10.50
2019-04-27T13:13:31.579Z,10.47
2019-04-27T13:16:23.364Z,10.20
2019-04-27T13:19:15.713Z,10.00
2019-04-27T13:22:06.746Z,10.13
2019-04-27T13:24:58.106Z,10.60
2019-04-27T13:27:51.232Z,9.90
2019-04-27T13:30:45.593Z,9.70
2019-04-27T13:33:36.461Z,10.20
2019-04-27T13:36:27.370Z,9.40
2019-04-27T13:39:18.579Z,9.80
2019-04-27T13:42:09.271Z,9.70
2019-04-27T13:45:01.991Z,9.53
2019-04-27T13:48:11.330Z,9.73
2019-04-27T13:51:03.703Z,10.30
2019-04-27T13:53:54.212Z,9.37
2019-04-27T13:56:47.506Z,9.47
2019-04-27T13:59:37.767Z,9.70
2019-04-27T14:02:32.301Z,9.27
2019-04-27T14:05:20.661Z,10.00
2019-04-27T14:08:12.043Z,9.63
2019-04-27T14:11:02.984Z,9.93
2019-04-27T14:13:54.249Z,10.23
2019-04-27T14:16:44.704Z,10.23
2019-04-27T14:19:55.330Z,9.50
2019-04-27T14:22:46.523Z,9.47
2019-04-27T14:25:36.851Z,10.43
2019-04-27T14:28:28.887Z,9.50
2019-04-27T14:31:19.648Z,9.47
2019-04-27T14:34:11.048Z,9.57
2019-04-27T14:37:02.652Z,9.40
2019-04-27T14:39:53.710Z,9.30
2019-04-27T14:42:44.737Z,9.73
2019-04-27T14:45:35.203Z,9.30
2019-04-27T14:48:26.659Z,9.80
2019-04-27T14:51:18.738Z,10.30
2019-04-27T14:54:10.130Z,10.17
2019-04-27T14:57:00.948Z,10.00
2019-04-27T14:59:52.340Z,10.00
2019-04-27T15:02:43.931Z,9.60
2019-04-27T15:05:35.296Z,9.90
2019-04-27T15:08:26.478Z,10.00
2019-04-27T15:11:19.241Z,10.00
2019-04-27T15:14:09.247Z,9.80
2019-04-27T15:17:01.379Z,9.90
2019-04-27T15:19:57.323Z,10.50
2019-04-27T15:22:56.434Z,10.27
2019-04-27T15:25:46.779Z,10.03
2019-04-27T15:28:36.544Z,9.50
2019-04-27T15:31:35.414Z,9.60
2019-04-27T15:34:42.704Z,9.80
2019-04-27T15:37:39.438Z,9.67
2019-04-27T15:41:08.676Z,9.40
2019-04-27T15:44:05.939Z,9.70
2019-04-27T15:46:51.932Z,9.50
2019-04-27T15:49:49.788Z,9.87
2019-04-27T15:52:34.708Z,10.10
2019-04-27T15:55:34.605Z,9.50
2019-04-27T15:58:19.339Z,9.80
2019-04-27T16:01:11.901Z,9.87
2019-04-27T16:04:02.613Z,9.83
2019-04-27T16:06:54.078Z,9.50
2019-04-27T16:09:44.254Z,10.80
2019-04-27T16:12:39.012Z,10.97
2019-04-27T16:15:29.917Z,10.20
2019-04-27T16:18:24.544Z,10.60
2019-04-27T16:21:14.063Z,9.77
2019-04-27T16:24:05.496Z,9.47
2019-04-27T16:26:56.280Z,9.60
2019-04-27T16:29:49.223Z,9.10
2019-04-27T16:32:44.049Z,9.63
2019-04-27T16:35:32.379Z,9.20
2019-04-27T16:38:41.654Z,9.10
2019-04-27T16:41:37.250Z,9.87
2019-04-27T16:44:25.527Z,9.37
2019-04-27T16:47:17.473Z,9.30
2019-04-27T16:50:08.375Z,10.17
2019-04-27T16:53:01.082Z,9.53
2019-04-27T16:58:49.117Z,9.07
2019-04-27T17:01:40.117Z,9.07
2019-04-27T17:04:31.505Z,9.40
2019-04-27T17:07:22.067Z,9.10
2019-04-27T17:10:16.296Z,9.20
2019-04-27T17:12:40.184Z,9.10
2019-04-27T17:13:11.537Z,9.37
2019-04-27T17:16:20.040Z,9.23
2019-04-27T17:19:21.026Z,8.90
2019-04-27T17:22:14.587Z,9.17
2019-04-27T17:25:04.906Z,9.33
2019-04-27T17:28:04.098Z,9.10
2019-04-27T17:30:53.709Z,9.83
2019-04-27T17:33:49.964Z,9.63
2019-04-27T17:36:40.877Z,9.33
2019-04-27T17:39:31.213Z,8.70
2019-04-27T17:42:26.685Z,8.80
2019-04-27T17:45:14.963Z,9.10
2019-04-27T17:48:08.840Z,9.13
2019-04-27T17:51:02.603Z,8.60
2019-04-27T17:53:50.359Z,8.90
2019-04-27T17:56:48.168Z,9.00
2019-04-27T17:59:34.076Z,9.43
2019-04-27T18:02:24.836Z,8.87
2019-04-27T18:05:17.971Z,9.30
2019-04-27T18:08:09.402Z,9.00
2019-04-27T18:11:03.281Z,9.00
2019-04-27T18:13:55.923Z,9.20
2019-04-27T18:16:45.714Z,9.17
2019-04-27T18:19:55.185Z,9.10
2019-04-27T18:22:49.296Z,9.13
2019-04-27T18:25:44.370Z,9.20
2019-04-27T18:28:38.674Z,9.20
2019-04-27T18:31:29.810Z,9.27
2019-04-27T18:34:20.715Z,9.53
2019-04-27T18:37:14.344Z,9.10
2019-04-27T18:40:04.058Z,9.10
2019-04-27T18:42:55.325Z,9.40
2019-04-27T18:45:48.493Z,8.90
2019-04-27T18:49:03.648Z,9.10
2019-04-27T18:52:12.592Z,9.07
2019-04-27T18:55:03.507Z,8.90
2019-04-27T18:57:54.640Z,9.17
2019-04-27T19:00:48.357Z,8.97
2019-04-27T19:03:39.514Z,8.90
2019-04-27T19:06:30.958Z,9.03
2019-04-27T19:09:21.404Z,8.73
2019-04-27T19:12:12.102Z,8.97
2019-04-27T19:15:03.143Z,8.70
2019-04-27T19:17:55.590Z,8.60
2019-04-27T19:20:48.212Z,8.87
2019-04-27T19:23:40.527Z,8.80
2019-04-27T19:26:41.363Z,9.33
2019-04-27T19:29:35.594Z,9.00
2019-04-27T19:32:28.261Z,9.23
2019-04-27T19:35:19.976Z,8.70
2019-04-27T19:38:10.777Z,8.80
2019-04-27T19:41:01.885Z,8.80
2019-04-27T19:43:52.966Z,9.10
2019-04-27T19:46:44.225Z,8.83
2019-04-27T19:49:34.968Z,9.20
2019-04-27T19:52:25.991Z,9.00
2019-04-27T19:55:18.947Z,9.53
2019-04-27T19:58:10.249Z,8.90
2019-04-27T20:01:11.992Z,9.33
2019-04-27T20:04:03.738Z,8.90
2019-04-27T20:06:54.973Z,8.90
2019-04-27T20:09:52.700Z,8.90
2019-04-27T20:12:42.954Z,8.90
2019-04-27T20:15:33.411Z,9.10
2019-04-27T20:18:24.659Z,9.10
2019-04-27T20:21:15.775Z,8.80
2019-04-27T20:24:07.331Z,9.30
2019-04-27T20:26:58.052Z,8.90
2019-04-27T20:29:48.694Z,9.40
2019-04-27T20:32:40.406Z,8.83
2019-04-27T20:35:31.753Z,9.43
2019-04-27T20:38:23.381Z,9.00
2019-04-27T20:41:14.225Z,9.40
2019-04-27T20:44:05.337Z,8.80
2019-04-27T20:46:57.433Z,9.30
2019-04-27T20:49:48.166Z,9.23
2019-04-27T20:52:57.682Z,9.00
2019-04-27T20:55:49.226Z,8.70
2019-04-27T20:58:41.105Z,8.63
2019-04-27T21:01:32.933Z,8.70
2019-04-27T21:04:27.363Z,8.80
2019-04-27T21:07:18.806Z,8.87
2019-04-27T21:10:10.402Z,9.00
2019-04-27T21:13:01.635Z,8.73
2019-04-27T21:15:52.903Z,8.90
2019-04-27T21:18:44.352Z,9.87
2019-04-27T21:21:34.768Z,9.20
2019-04-27T21:24:27.462Z,8.90
2019-04-27T21:27:17.846Z,8.80
2019-04-27T21:30:11.534Z,8.80
2019-04-27T21:33:02.922Z,8.60
2019-04-27T21:35:54.496Z,8.70
2019-04-27T21:38:44.888Z,9.07
2019-04-27T21:41:36.049Z,8.70
2019-04-27T21:44:26.520Z,8.77
2019-04-27T21:47:16.886Z,8.70
2019-04-27T21:50:08.103Z,8.50
2019-04-27T21:53:13.193Z,8.60
2019-04-27T21:56:05.660Z,8.50
2019-04-27T21:58:57.046Z,8.57
2019-04-27T22:01:48.574Z,8.50
2019-04-27T22:04:39.312Z,8.80
2019-04-27T22:07:31.748Z,8.87
2019-04-27T22:10:25.009Z,8.93
2019-04-27T22:13:15.576Z,8.80
2019-04-27T22:16:06.223Z,8.60
2019-04-27T22:18:57.812Z,8.87
2019-04-27T22:21:48.209Z,9.00
2019-04-27T22:24:42.812Z,8.60
2019-04-27T22:27:32.053Z,8.43
2019-04-27T22:30:22.805Z,8.93
2019-04-27T22:33:14.375Z,8.80
2019-04-27T22:36:05.099Z,9.27
2019-04-27T22:39:01.567Z,8.70
2019-04-27T22:42:12.211Z,9.33
2019-04-27T22:45:10.996Z,8.90
2019-04-27T22:48:02.091Z,8.60
2019-04-27T22:50:53.164Z,8.90
2019-04-27T22:53:43.956Z,9.10
2019-04-27T22:56:34.363Z,9.17
2019-04-27T22:59:33.916Z,8.87
2019-04-27T23:02:43.119Z,8.90
2019-04-27T23:05:34.285Z,8.83
2019-04-27T23:08:25.538Z,8.80
2019-04-27T23:11:16.484Z,9.00
2019-04-27T23:14:07.875Z,9.00
2019-04-27T23:17:05.818Z,8.70
2019-04-27T23:19:56.138Z,8.60
2019-04-27T23:22:47.323Z,8.77
2019-04-27T23:25:38.679Z,9.37
2019-04-27T23:28:28.864Z,8.70
2019-04-27T23:31:37.833Z,8.60
2019-04-27T23:34:28.458Z,8.87
2019-04-27T23:37:19.918Z,8.60
2019-04-27T23:40:11.117Z,9.10
2019-04-27T23:43:02.196Z,9.20
2019-04-27T23:45:53.200Z,8.80
2019-04-27T23:48:44.453Z,8.80
2019-04-27T23:51:44.331Z,8.83
2019-04-27T23:54:35.121Z,8.80
2019-04-27T23:57:26.150Z,8.73
